Time;durP1;ratioP1;P1;durP2;ratioP2;P2;SDS_P1;SDS_P2;PMS_P1;PMS_P2;Temp;Humidity;BMP_temperature;BMP_pressure;BME280_temperature;BME280_humidity;BME280_pressure;Samples;Min_cycle;Max_cycle;Signal;HPM_P1;HPM_P2
2021/04/24 00:01:13;;;;;;;6.85;4.18;;;10.50;42.60;;;;;;5144876;27;20027;-66
2021/04/24 00:03:38;;;;;;;5.22;3.70;;;10.50;42.40;;;;;;5135672;27;20024;-66
2021/04/24 00:06:04;;;;;;;10.45;5.40;;;10.40;42.50;;;;;;5135728;27;20384;-66
2021/04/24 00:08:30;;;;;;;10.68;5.30;;;10.40;42.70;;;;;;5143562;27;20494;-66
2021/04/24 00:10:56;;;;;;;8.52;4.57;;;10.40;43.20;;;;;;5156241;27;20023;-68
2021/04/24 00:13:22;;;;;;;8.63;5.15;;;10.40;43.20;;;;;;5156200;27;20047;-66
2021/04/24 00:15:48;;;;;;;11.65;5.55;;;10.30;43.50;;;;;;5153765;27;20030;-66
2021/04/24 00:18:14;;;;;;;16.00;6.22;;;10.30;44.20;;;;;;5146423;27;20084;-66
2021/04/24 00:20:41;;;;;;;10.52;5.68;;;10.30;44.50;;;;;;5134395;27;20387;-66
2021/04/24 00:23:07;;;;;;;14.60;6.32;;;10.30;44.60;;;;;;5135514;27;20030;-66
2021/04/24 00:25:33;;;;;;;12.48;6.03;;;10.30;44.90;;;;;;5135333;27;20019;-66
2021/04/24 00:27:59;;;;;;;9.20;5.25;;;10.20;44.90;;;;;;5135236;27;20102;-66
2021/04/24 00:30:25;;;;;;;10.30;6.07;;;10.20;44.80;;;;;;5134857;27;20524;-66
2021/04/24 00:32:52;;;;;;;8.43;5.78;;;10.20;44.70;;;;;;5141128;27;20046;-67
2021/04/24 00:35:19;;;;;;;11.00;5.53;;;10.20;45.10;;;;;;5135004;27;20129;-66
2021/04/24 00:37:47;;;;;;;9.30;4.88;;;10.30;44.90;;;;;;5135038;27;20027;-66
2021/04/24 00:40:14;;;;;;;12.55;5.60;;;10.20;44.80;;;;;;5134965;27;20468;-66
2021/04/24 00:42:40;;;;;;;8.63;4.65;;;10.20;44.40;;;;;;5134995;27;20102;-66
2021/04/24 00:45:09;;;;;;;9.77;4.82;;;10.20;44.20;;;;;;5134962;27;20030;-66
2021/04/24 00:47:35;;;;;;;11.13;5.38;;;10.10;44.40;;;;;;5135069;27;20023;-66
2021/04/24 00:50:02;;;;;;;12.23;5.10;;;10.10;44.30;;;;;;5134828;27;20132;-66
2021/04/24 00:52:28;;;;;;;10.30;5.53;;;10.10;44.60;;;;;;5134611;27;20051;-66
2021/04/24 00:54:53;;;;;;;8.70;4.88;;;10.10;44.30;;;;;;5134752;27;20030;-66
2021/04/24 00:57:21;;;;;;;10.43;4.93;;;10.00;44.40;;;;;;5134478;27;20479;-66
2021/04/24 00:59:48;;;;;;;8.23;4.50;;;10.00;44.40;;;;;;5134344;27;20495;-66
2021/04/24 01:02:15;;;;;;;10.98;4.93;;;9.90;44.60;;;;;;5145306;27;20492;-66
2021/04/24 01:04:42;;;;;;;10.15;5.25;;;9.90;44.30;;;;;;5153999;27;20021;-66
2021/04/24 01:07:09;;;;;;;9.13;5.38;;;9.90;44.50;;;;;;5155296;27;20038;-66
2021/04/24 01:09:35;;;;;;;8.98;4.60;;;9.90;44.50;;;;;;5153953;27;20506;-66
2021/04/24 01:12:01;;;;;;;11.85;5.15;;;9.80;44.30;;;;;;5153911;27;20026;-66
2021/04/24 01:14:27;;;;;;;10.70;5.63;;;9.80;44.20;;;;;;5153903;27;20073;-66
2021/04/24 01:16:54;;;;;;;11.73;6.30;;;9.70;44.70;;;;;;5155079;27;20035;-66
2021/04/24 01:19:23;;;;;;;9.10;5.43;;;9.70;45.00;;;;;;5155097;27;20448;-66
2021/04/24 01:21:51;;;;;;;9.07;4.82;;;9.70;45.20;;;;;;5145964;27;20466;-66
2021/04/24 01:24:18;;;;;;;12.70;5.10;;;9.70;45.10;;;;;;5113843;28;20136;-66
2021/04/24 01:26:44;;;;;;;6.38;4.40;;;9.70;45.20;;;;;;5113419;28;20481;-66
2021/04/24 01:29:10;;;;;;;13.20;5.68;;;9.60;45.20;;;;;;5125535;27;20059;-66
2021/04/24 01:31:37;;;;;;;10.68;5.88;;;9.60;45.60;;;;;;5133877;27;20023;-66
2021/04/24 01:34:05;;;;;;;10.25;5.75;;;9.60;45.90;;;;;;5133584;27;20033;-66
2021/04/24 01:36:31;;;;;;;9.70;4.88;;;9.50;46.00;;;;;;5133513;27;20018;-66
2021/04/24 01:38:57;;;;;;;13.32;5.47;;;9.50;45.60;;;;;;5134022;27;20051;-66
2021/04/24 01:41:23;;;;;;;12.95;5.65;;;9.50;46.00;;;;;;5133931;27;20063;-66
2021/04/24 01:43:54;;;;;;;9.55;5.78;;;9.40;46.00;;;;;;5133941;27;20031;-66
2021/04/24 01:46:21;;;;;;;12.63;6.03;;;9.50;46.10;;;;;;5134224;27;20499;-66
2021/04/24 01:48:47;;;;;;;10.48;6.15;;;9.40;46.10;;;;;;5134098;27;20031;-66
2021/04/24 01:51:14;;;;;;;8.98;6.05;;;9.40;46.40;;;;;;5133713;27;20077;-66
2021/04/24 01:53:40;;;;;;;11.70;6.47;;;9.40;46.50;;;;;;5133933;27;20019;-66
2021/04/24 01:56:08;;;;;;;12.57;6.63;;;9.40;46.50;;;;;;5139689;27;20027;-66
2021/04/24 01:58:34;;;;;;;13.25;6.75;;;9.40;46.70;;;;;;5154593;27;20023;-66
2021/04/24 02:01:04;;;;;;;11.00;5.72;;;9.30;46.90;;;;;;5148064;27;20475;-66
2021/04/24 02:03:30;;;;;;;12.85;6.07;;;9.30;46.80;;;;;;5133783;27;20011;-67
2021/04/24 02:05:56;;;;;;;9.88;6.05;;;9.30;46.70;;;;;;5132527;27;20059;-65
2021/04/24 02:08:36;;;;;;;11.40;6.28;;;9.30;46.50;;;;;;5133742;27;20031;-65
2021/04/24 02:11:04;;;;;;;14.40;6.93;;;9.30;46.70;;;;;;5133774;27;20391;-66
2021/04/24 02:13:32;;;;;;;11.75;7.35;;;9.20;46.80;;;;;;5133772;27;20441;-66
2021/04/24 02:15:59;;;;;;;11.50;5.85;;;9.20;47.10;;;;;;5143985;27;20037;-66
2021/04/24 02:18:25;;;;;;;9.48;5.38;;;9.20;46.70;;;;;;5154077;27;20370;-66
2021/04/24 02:20:51;;;;;;;10.10;6.30;;;9.20;46.50;;;;;;5154310;27;20101;-66
2021/04/24 02:23:18;;;;;;;10.10;5.70;;;9.10;46.70;;;;;;5139341;27;20459;-66
2021/04/24 02:25:46;;;;;;;9.30;5.45;;;9.10;46.60;;;;;;5133588;27;20027;-66
2021/04/24 02:28:12;;;;;;;12.90;6.15;;;9.10;46.60;;;;;;5133610;27;20026;-66
2021/04/24 02:30:38;;;;;;;9.00;5.22;;;9.00;46.90;;;;;;5133335;27;20361;-66
2021/04/24 02:33:05;;;;;;;8.90;4.97;;;9.00;46.70;;;;;;5133035;27;20034;-66
2021/04/24 02:35:45;;;;;;;8.32;5.22;;;8.90;46.60;;;;;;5133519;28;20049;-66
2021/04/24 02:38:16;;;;;;;8.57;5.38;;;8.90;46.70;;;;;;5133548;27;20027;-66
2021/04/24 02:40:42;;;;;;;8.63;5.50;;;8.90;46.60;;;;;;5146805;27;20019;-66
2021/04/24 02:43:08;;;;;;;9.60;6.07;;;8.80;46.60;;;;;;5158114;27;20030;-66
2021/04/24 02:45:34;;;;;;;10.35;5.22;;;8.80;46.80;;;;;;5158117;27;20379;-66
2021/04/24 02:48:00;;;;;;;8.48;5.43;;;8.80;46.80;;;;;;5158024;27;20019;-65
2021/04/24 02:50:25;;;;;;;8.60;5.28;;;8.70;47.00;;;;;;5157770;27;20384;-65
2021/04/24 02:52:51;;;;;;;11.07;4.95;;;8.70;47.20;;;;;;5152998;27;20082;-65
2021/04/24 02:55:19;;;;;;;8.50;6.18;;;8.60;47.20;;;;;;5132566;27;20119;-66
2021/04/24 02:57:46;;;;;;;9.85;5.70;;;8.60;47.30;;;;;;5116478;28;20020;-65
2021/04/24 03:00:14;;;;;;;13.68;6.03;;;8.60;47.50;;;;;;5116499;28;20388;-65
2021/04/24 03:02:40;;;;;;;11.48;5.53;;;8.60;47.80;;;;;;5132071;27;20019;-66
2021/04/24 03:05:12;;;;;;;10.65;6.57;;;8.50;47.60;;;;;;5136919;27;20380;-66
2021/04/24 03:07:38;;;;;;;14.10;7.20;;;8.50;48.20;;;;;;5136916;27;20020;-66
2021/04/24 03:10:06;;;;;;;12.43;6.55;;;8.50;48.40;;;;;;5145802;27;20094;-66
2021/04/24 03:12:33;;;;;;;11.95;6.57;;;8.50;49.30;;;;;;5157433;27;20085;-65
2021/04/24 03:14:59;;;;;;;12.93;6.47;;;8.40;48.80;;;;;;5157498;27;20022;-66
2021/04/24 03:17:25;;;;;;;12.40;7.05;;;8.40;48.90;;;;;;5157375;27;20539;-65
2021/04/24 03:19:51;;;;;;;9.90;5.82;;;8.40;49.00;;;;;;5157239;27;20319;-66
2021/04/24 03:22:16;;;;;;;11.77;6.25;;;8.40;48.90;;;;;;5151139;27;20054;-65
2021/04/24 03:24:42;;;;;;;8.18;4.90;;;8.40;48.80;;;;;;5136586;27;20019;-66
2021/04/24 03:27:08;;;;;;;8.48;4.88;;;8.40;48.60;;;;;;5136526;27;20480;-65
2021/04/24 03:29:34;;;;;;;6.82;4.57;;;8.30;48.40;;;;;;5136458;27;20023;-65
2021/04/24 03:32:00;;;;;;;8.77;5.78;;;8.30;48.40;;;;;;5136009;27;20102;-66
2021/04/24 03:34:26;;;;;;;8.20;5.53;;;8.30;48.40;;;;;;5136331;27;20059;-66
2021/04/24 03:36:52;;;;;;;8.38;4.82;;;8.30;48.60;;;;;;5136380;27;20076;-65
2021/04/24 03:39:18;;;;;;;10.23;5.93;;;8.20;48.30;;;;;;5138049;27;20384;-65
2021/04/24 03:41:43;;;;;;;12.02;7.25;;;8.20;48.40;;;;;;5156925;27;20156;-65
2021/04/24 03:44:09;;;;;;;14.07;6.57;;;8.20;48.60;;;;;;5156927;27;20054;-66
2021/04/24 03:46:35;;;;;;;10.73;6.10;;;8.20;48.80;;;;;;5156885;27;20019;-66
2021/04/24 03:49:01;;;;;;;9.30;5.10;;;8.10;48.60;;;;;;5156782;27;20015;-65
2021/04/24 03:51:26;;;;;;;9.38;5.68;;;8.10;48.50;;;;;;5151831;27;20510;-66
2021/04/24 03:53:52;;;;;;;10.40;5.55;;;8.10;48.70;;;;;;5115455;28;20023;-66
2021/04/24 03:56:18;;;;;;;10.95;5.60;;;8.10;48.80;;;;;;5115339;28;20027;-65
2021/04/24 03:58:44;;;;;;;8.00;5.28;;;8.10;48.80;;;;;;5115285;28;20393;-65
2021/04/24 04:01:10;;;;;;;11.82;6.68;;;8.10;48.90;;;;;;5121396;27;20072;-65
2021/04/24 04:03:35;;;;;;;9.60;6.18;;;8.00;49.20;;;;;;5135778;27;20026;-66
2021/04/24 04:06:01;;;;;;;14.02;6.80;;;8.00;49.10;;;;;;5135722;27;20019;-65
2021/04/24 04:08:27;;;;;;;11.88;6.05;;;8.00;49.30;;;;;;5135741;27;20421;-65
2021/04/24 04:10:53;;;;;;;19.10;6.50;;;8.00;49.50;;;;;;5150772;27;20030;-66
2021/04/24 04:13:19;;;;;;;12.50;5.93;;;8.10;49.70;;;;;;5156393;27;20019;-65
2021/04/24 04:15:44;;;;;;;10.38;6.45;;;8.10;49.70;;;;;;5156149;27;20023;-65
2021/04/24 04:18:17;;;;;;;13.57;7.05;;;8.10;49.70;;;;;;5156214;27;20027;-66
2021/04/24 04:20:45;;;;;;;9.00;5.35;;;8.10;49.90;;;;;;5156101;27;20072;-65
2021/04/24 04:23:11;;;;;;;14.40;6.43;;;8.10;49.70;;;;;;5142210;27;20023;-65
2021/04/24 04:25:38;;;;;;;9.13;5.88;;;8.10;49.70;;;;;;5135374;27;20492;-65
2021/04/24 04:28:04;;;;;;;9.65;5.72;;;8.10;49.70;;;;;;5135280;27;20382;-66
2021/04/24 04:30:31;;;;;;;12.30;5.88;;;8.10;49.70;;;;;;5135006;27;20062;-66
2021/04/24 04:32:58;;;;;;;15.07;6.63;;;8.20;49.80;;;;;;5114572;28;20031;-65
2021/04/24 04:35:24;;;;;;;10.38;6.25;;;8.20;49.90;;;;;;5114552;28;20110;-65
2021/04/24 04:37:50;;;;;;;12.10;6.97;;;8.20;49.80;;;;;;5114504;28;20477;-66
2021/04/24 04:40:17;;;;;;;14.55;7.10;;;8.20;50.00;;;;;;5134092;27;20034;-66
2021/04/24 04:42:44;;;;;;;13.27;7.40;;;8.30;50.30;;;;;;5155757;27;20025;-66
2021/04/24 04:45:12;;;;;;;11.75;7.00;;;8.30;50.40;;;;;;5155660;27;20019;-66
2021/04/24 04:47:38;;;;;;;11.43;6.53;;;8.40;50.40;;;;;;5142511;27;20015;-66
2021/04/24 04:50:08;;;;;;;18.95;7.10;;;8.40;50.20;;;;;;5134814;27;20430;-66
2021/04/24 04:52:34;;;;;;;11.98;6.50;;;8.50;50.30;;;;;;5134568;27;20054;-65
2021/04/24 04:55:00;;;;;;;14.45;6.45;;;8.50;50.20;;;;;;5139134;27;20022;-66
2021/04/24 04:57:25;;;;;;;15.35;7.15;;;8.60;50.30;;;;;;5155313;27;20497;-66
2021/04/24 04:59:51;;;;;;;18.42;7.20;;;8.60;50.50;;;;;;5155301;27;20078;-66
2021/04/24 05:02:17;;;;;;;16.35;7.07;;;8.70;50.50;;;;;;5139233;27;20033;-65
2021/04/24 05:04:44;;;;;;;17.42;7.07;;;8.80;50.70;;;;;;5133213;27;20468;-66
2021/04/24 05:07:10;;;;;;;19.08;7.10;;;8.90;50.80;;;;;;5134549;27;20019;-66
2021/04/24 05:09:35;;;;;;;16.58;7.30;;;8.90;50.90;;;;;;5134515;27;20117;-66
2021/04/24 05:12:01;;;;;;;14.93;6.93;;;9.00;51.10;;;;;;5134470;27;20023;-66
2021/04/24 05:14:27;;;;;;;16.33;7.97;;;9.00;51.00;;;;;;5133911;27;20081;-66
2021/04/24 05:16:53;;;;;;;21.52;8.45;;;9.10;51.40;;;;;;5134394;27;20034;-66
2021/04/24 05:19:19;;;;;;;18.75;9.45;;;9.20;51.50;;;;;;5134251;27;20384;-66
2021/04/24 05:21:44;;;;;;;15.60;9.27;;;9.30;51.50;;;;;;5135239;27;20061;-66
2021/04/24 05:24:10;;;;;;;21.63;9.32;;;9.40;51.30;;;;;;5133967;27;20425;-66
2021/04/24 05:26:36;;;;;;;12.57;7.32;;;9.40;51.00;;;;;;5134210;27;20027;-66
2021/04/24 05:29:02;;;;;;;14.70;6.75;;;9.50;50.90;;;;;;5132989;27;20051;-66
2021/04/24 05:31:28;;;;;;;12.18;7.28;;;9.60;50.70;;;;;;5134032;27;20107;-66
2021/04/24 05:33:54;;;;;;;15.25;6.93;;;9.70;50.90;;;;;;5134213;27;20049;-66
2021/04/24 05:36:21;;;;;;;11.82;6.22;;;9.80;50.80;;;;;;5132871;27;20392;-66
2021/04/24 05:38:51;;;;;;;19.40;7.50;;;9.80;50.60;;;;;;5134020;27;20088;-66
2021/04/24 05:41:21;;;;;;;14.15;7.38;;;9.90;50.60;;;;;;5133881;27;20031;-68
2021/04/24 05:43:49;;;;;;;16.02;7.85;;;10.00;50.70;;;;;;5133892;27;20418;-66
2021/04/24 05:46:15;;;;;;;15.48;7.18;;;10.10;50.80;;;;;;5135344;27;20023;-66
2021/04/24 05:48:41;;;;;;;21.08;7.88;;;10.10;50.80;;;;;;5149204;27;20035;-66
2021/04/24 05:51:07;;;;;;;35.35;9.43;;;10.20;51.00;;;;;;5113348;28;20078;-66
2021/04/24 05:53:33;;;;;;;29.65;9.02;;;10.30;51.30;;;;;;5143977;27;20018;-66
2021/04/24 05:55:58;;;;;;;16.65;7.82;;;10.40;51.10;;;;;;5154207;27;20071;-66
2021/04/24 05:58:24;;;;;;;18.00;7.70;;;10.50;51.00;;;;;;5153189;27;20082;-66
2021/04/24 06:00:50;;;;;;;19.83;8.15;;;10.60;50.90;;;;;;5152002;27;20413;-66
2021/04/24 06:03:16;;;;;;;16.38;8.05;;;10.60;50.70;;;;;;5133857;27;20028;-66
2021/04/24 06:05:42;;;;;;;36.78;9.43;;;10.70;50.60;;;;;;5133834;27;20020;-67
2021/04/24 06:08:08;;;;;;;20.45;8.23;;;10.80;50.50;;;;;;5133807;27;20018;-66
2021/04/24 06:10:35;;;;;;;20.88;9.70;;;10.90;50.40;;;;;;5133743;27;20106;-67
2021/04/24 06:13:00;;;;;;;28.38;8.95;;;10.90;50.10;;;;;;5133670;27;20039;-67
2021/04/24 06:15:26;;;;;;;22.55;9.13;;;11.00;50.10;;;;;;5137250;27;20027;-66
2021/04/24 06:17:52;;;;;;;25.20;8.48;;;11.00;50.10;;;;;;5137678;27;20034;-66
2021/04/24 06:20:18;;;;;;;16.40;8.00;;;11.20;49.90;;;;;;5137718;27;20027;-66
2021/04/24 06:22:44;;;;;;;25.30;8.38;;;11.30;49.70;;;;;;5138440;27;20051;-66
2021/04/24 06:25:13;;;;;;;23.42;7.88;;;11.30;49.50;;;;;;5137650;27;20023;-66
2021/04/24 06:27:39;;;;;;;12.27;7.20;;;11.40;49.50;;;;;;5137593;27;20047;-66
2021/04/24 06:30:07;;;;;;;20.17;9.25;;;11.50;49.30;;;;;;5146787;27;20035;-66
2021/04/24 06:32:33;;;;;;;17.13;8.70;;;11.60;49.30;;;;;;5138666;27;20376;-66
2021/04/24 06:34:59;;;;;;;24.50;9.88;;;11.70;49.30;;;;;;5137598;27;20030;-66
2021/04/24 06:37:25;;;;;;;15.82;8.55;;;11.80;49.10;;;;;;5137428;27;20031;-66
2021/04/24 06:39:51;;;;;;;13.77;7.57;;;11.90;48.40;;;;;;5137328;27;20051;-66
2021/04/24 06:42:16;;;;;;;16.15;7.53;;;12.00;47.80;;;;;;5137362;27;20472;-66
2021/04/24 06:44:45;;;;;;;13.15;7.00;;;12.00;47.50;;;;;;5137290;27;20019;-67
2021/04/24 06:47:12;;;;;;;15.85;7.28;;;12.20;47.40;;;;;;5137184;27;20019;-67
2021/04/24 06:49:38;;;;;;;9.95;7.13;;;12.30;47.00;;;;;;5137141;27;20075;-66
2021/04/24 06:52:05;;;;;;;14.05;8.27;;;12.40;46.40;;;;;;5140873;27;20449;-66
2021/04/24 06:54:31;;;;;;;12.65;6.43;;;12.40;45.20;;;;;;5157810;27;20067;-66
2021/04/24 06:56:57;;;;;;;12.20;7.00;;;12.50;45.30;;;;;;5157680;27;20031;-66
2021/04/24 06:59:23;;;;;;;15.00;8.15;;;12.70;45.10;;;;;;5157638;27;20045;-66
2021/04/24 07:01:49;;;;;;;13.90;8.00;;;12.70;44.20;;;;;;5144698;27;20072;-66
2021/04/24 07:04:15;;;;;;;15.23;7.82;;;12.80;44.00;;;;;;5136954;27;20076;-67
2021/04/24 07:06:40;;;;;;;15.30;7.75;;;12.90;43.50;;;;;;5145595;27;20019;-66
2021/04/24 07:09:06;;;;;;;15.05;8.23;;;13.00;42.80;;;;;;5157514;27;20106;-67
2021/04/24 07:11:32;;;;;;;17.17;8.85;;;13.10;41.90;;;;;;5157363;27;20038;-66
2021/04/24 07:13:58;;;;;;;14.95;8.85;;;13.20;41.50;;;;;;5157413;27;20383;-67
2021/04/24 07:16:24;;;;;;;12.73;6.90;;;13.30;41.20;;;;;;5150375;27;20020;-67
2021/04/24 07:18:50;;;;;;;14.98;8.35;;;13.30;41.30;;;;;;5136597;27;20035;-67
2021/04/24 07:21:16;;;;;;;13.13;8.20;;;13.40;40.90;;;;;;5136519;27;20034;-67
2021/04/24 07:23:42;;;;;;;14.90;8.23;;;13.50;40.50;;;;;;5136519;27;20381;-66
2021/04/24 07:26:08;;;;;;;15.63;7.85;;;13.50;40.30;;;;;;5135777;27;20384;-67
2021/04/24 07:28:34;;;;;;;11.93;6.88;;;13.60;40.00;;;;;;5136374;27;20023;-66
2021/04/24 07:31:01;;;;;;;16.20;7.60;;;13.60;40.00;;;;;;5135464;27;20034;-67
2021/04/24 07:33:27;;;;;;;13.70;8.35;;;13.70;39.60;;;;;;5136174;27;20447;-67
2021/04/24 07:35:54;;;;;;;21.20;8.82;;;13.70;39.30;;;;;;5136087;27;20357;-67
2021/04/24 07:38:21;;;;;;;17.60;7.85;;;13.80;39.60;;;;;;5136189;27;20019;-67
2021/04/24 07:40:48;;;;;;;15.35;8.23;;;13.80;39.10;;;;;;5136143;27;20451;-67
2021/04/24 07:43:14;;;;;;;17.73;8.43;;;13.90;38.90;;;;;;5141181;27;20037;-67
2021/04/24 07:45:40;;;;;;;12.27;8.07;;;13.90;38.90;;;;;;5154739;27;20028;-67
2021/04/24 07:48:07;;;;;;;14.43;7.53;;;14.00;39.20;;;;;;5115481;28;20024;-67
2021/04/24 07:50:33;;;;;;;16.77;7.07;;;14.10;39.30;;;;;;5130801;27;20027;-67
2021/04/24 07:53:00;;;;;;;12.65;7.78;;;14.20;39.40;;;;;;5115443;28;20103;-67
2021/04/24 07:55:27;;;;;;;12.27;8.02;;;14.30;39.40;;;;;;5115317;28;20027;-67
2021/04/24 07:57:54;;;;;;;17.13;6.78;;;14.40;38.80;;;;;;5115235;28;20035;-67
2021/04/24 08:00:20;;;;;;;13.35;7.40;;;14.50;39.10;;;;;;5115154;28;20039;-67
2021/04/24 08:02:46;;;;;;;14.07;8.02;;;14.50;39.10;;;;;;5141846;27;20034;-67
2021/04/24 08:05:13;;;;;;;13.80;7.93;;;14.60;38.50;;;;;;5147065;27;20468;-67
2021/04/24 08:07:38;;;;;;;11.20;8.07;;;14.70;38.50;;;;;;5135673;27;20102;-67
2021/04/24 08:10:05;;;;;;;12.30;7.43;;;14.80;38.20;;;;;;5134331;27;20474;-68
2021/04/24 08:12:31;;;;;;;15.48;7.32;;;14.80;38.20;;;;;;5134253;27;20028;-67
2021/04/24 08:14:57;;;;;;;13.45;7.05;;;14.90;38.20;;;;;;5135206;27;20472;-67
2021/04/24 08:17:23;;;;;;;12.60;7.15;;;15.00;38.10;;;;;;5134164;27;20031;-67
2021/04/24 08:19:49;;;;;;;15.38;8.65;;;15.10;37.90;;;;;;5133975;27;20027;-68
2021/04/24 08:22:15;;;;;;;11.05;7.07;;;15.10;37.40;;;;;;5135296;27;20058;-67
2021/04/24 08:24:41;;;;;;;13.07;7.80;;;15.20;37.40;;;;;;5130765;27;20448;-68
2021/04/24 08:27:07;;;;;;;15.00;8.32;;;15.20;37.30;;;;;;5119118;27;20076;-67
2021/04/24 08:29:34;;;;;;;14.93;7.25;;;15.30;37.70;;;;;;5114632;28;20020;-67
2021/04/24 08:32:01;;;;;;;10.10;6.60;;;15.30;37.10;;;;;;5126356;27;20058;-68
2021/04/24 08:34:29;;;;;;;13.93;8.65;;;15.40;37.20;;;;;;5124551;27;20580;-67
2021/04/24 08:36:55;;;;;;;14.75;8.13;;;15.50;36.70;;;;;;5134275;27;20095;-68
2021/04/24 08:39:21;;;;;;;15.13;7.85;;;15.50;36.70;;;;;;5135248;27;20460;-68
2021/04/24 08:41:47;;;;;;;11.15;7.15;;;15.60;36.60;;;;;;5134926;27;20030;-68
2021/04/24 08:44:15;;;;;;;14.55;7.93;;;15.70;36.80;;;;;;5134113;27;20015;-68
2021/04/24 08:46:42;;;;;;;17.90;7.35;;;15.70;36.60;;;;;;5118399;27;20024;-67
2021/04/24 08:49:08;;;;;;;12.73;7.45;;;15.80;36.20;;;;;;5129001;27;20110;-68
2021/04/24 08:51:34;;;;;;;13.02;6.78;;;15.90;36.10;;;;;;5134485;27;20097;-67
2021/04/24 08:54:00;;;;;;;19.20;8.43;;;16.00;36.40;;;;;;5134796;27;20030;-68
2021/04/24 08:56:27;;;;;;;13.02;7.50;;;16.00;35.90;;;;;;5133346;27;20023;-68
2021/04/24 08:58:55;;;;;;;13.52;7.20;;;16.10;35.80;;;;;;5133292;27;20074;-68
2021/04/24 09:01:22;;;;;;;15.55;7.28;;;16.20;35.80;;;;;;5134326;27;20027;-68
2021/04/24 09:03:48;;;;;;;14.75;8.48;;;16.20;35.50;;;;;;5134421;27;20023;-68
2021/04/24 09:06:19;;;;;;;14.77;8.10;;;16.30;34.80;;;;;;5134488;27;20376;-68
2021/04/24 09:09:06;;;;;;;12.35;6.88;;;16.30;34.30;;;;;;5122469;27;20027;-68
2021/04/24 09:11:44;;;;;;;14.48;7.75;;;16.30;34.90;;;;;;5117431;27;20528;-67
2021/04/24 09:14:13;;;;;;;15.55;7.50;;;16.40;35.60;;;;;;5134357;27;20027;-68
2021/04/24 09:16:40;;;;;;;14.02;8.43;;;16.40;35.00;;;;;;5135775;27;20022;-68
2021/04/24 09:19:27;;;;;;;14.77;7.93;;;16.50;34.90;;;;;;5141940;27;20068;-68
2021/04/24 09:22:16;;;;;;;20.70;9.10;;;16.60;34.80;;;;;;5131987;27;20042;-68
2021/04/24 09:24:44;;;;;;;12.85;6.97;;;16.60;34.00;;;;;;5127210;27;20035;-68
2021/04/24 09:27:09;;;;;;;14.02;7.30;;;16.70;34.20;;;;;;5142570;27;20517;-68
2021/04/24 09:29:36;;;;;;;15.98;7.63;;;16.80;34.20;;;;;;5136198;27;20060;-68
2021/04/24 09:32:13;;;;;;;19.23;7.65;;;16.90;34.00;;;;;;5131154;27;20492;-68
2021/04/24 09:34:40;;;;;;;18.42;8.05;;;16.90;33.70;;;;;;5131583;27;20157;-76
2021/04/24 09:37:14;;;;;;;17.75;7.90;;;17.00;33.70;;;;;;5132681;27;20327;-68
2021/04/24 09:40:00;;;;;;;19.90;7.78;;;17.00;33.10;;;;;;5133986;27;20027;-69
2021/04/24 09:42:40;;;;;;;15.32;6.82;;;17.10;33.30;;;;;;5133796;27;20027;-69
2021/04/24 09:45:26;;;;;;;16.23;6.93;;;17.20;33.20;;;;;;5133746;27;20019;-68
2021/04/24 09:47:56;;;;;;;13.35;6.57;;;17.30;33.30;;;;;;5133794;27;20034;-68
2021/04/24 09:50:29;;;;;;;14.27;6.40;;;17.30;33.40;;;;;;5133731;27;20056;-69
2021/04/24 09:53:14;;;;;;;15.95;6.97;;;17.50;33.70;;;;;;5133924;27;20098;-68
2021/04/24 09:55:39;;;;;;;14.82;6.50;;;17.60;33.40;;;;;;5132659;28;20031;-68
2021/04/24 09:58:22;;;;;;;14.05;6.85;;;17.60;32.30;;;;;;5133794;27;20379;-68
2021/04/24 10:00:47;;;;;;;14.38;6.60;;;17.70;32.10;;;;;;5133458;27;20364;-68
2021/04/24 10:03:34;;;;;;;13.38;6.43;;;17.80;31.90;;;;;;5133846;27;20026;-68
2021/04/24 10:06:22;;;;;;;14.93;6.13;;;17.90;32.50;;;;;;5133798;27;20472;-68
2021/04/24 10:08:49;;;;;;;9.77;5.65;;;18.00;32.20;;;;;;5133683;27;20023;-69
2021/04/24 10:11:30;;;;;;;13.27;6.57;;;18.10;32.10;;;;;;5133722;27;20072;-69
2021/04/24 10:13:56;;;;;;;11.63;5.95;;;18.20;31.80;;;;;;5133710;27;20108;-69
2021/04/24 10:16:43;;;;;;;12.10;6.40;;;18.20;31.90;;;;;;5133900;27;20145;-69
2021/04/24 10:19:14;;;;;;;13.05;6.60;;;18.30;31.80;;;;;;5132372;27;20384;-69
2021/04/24 10:21:43;;;;;;;15.05;7.07;;;18.40;31.50;;;;;;5133726;27;20031;-68
2021/04/24 10:24:10;;;;;;;12.38;6.47;;;18.40;31.30;;;;;;5132303;28;20165;-69
2021/04/24 10:26:37;;;;;;;9.80;6.13;;;18.50;31.30;;;;;;5132163;28;20069;-69
2021/04/24 10:29:05;;;;;;;12.20;7.18;;;18.50;31.60;;;;;;5135618;27;20072;-69
2021/04/24 10:31:32;;;;;;;13.10;7.68;;;18.60;31.50;;;;;;5145898;27;20034;-69
2021/04/24 10:33:59;;;;;;;17.27;6.38;;;18.60;30.70;;;;;;5133223;27;20023;-69
2021/04/24 10:36:27;;;;;;;10.30;6.30;;;18.60;30.90;;;;;;5152340;27;20088;-69
2021/04/24 10:38:54;;;;;;;10.63;6.25;;;18.70;31.10;;;;;;5154255;27;20075;-69
2021/04/24 10:41:38;;;;;;;14.63;6.72;;;18.80;31.40;;;;;;5146726;27;20027;-69
2021/04/24 10:44:07;;;;;;;17.00;8.60;;;18.80;30.50;;;;;;5122923;28;20472;-68
2021/04/24 10:46:44;;;;;;;11.18;6.65;;;18.80;29.10;;;;;;5128233;28;20071;-69
2021/04/24 10:49:32;;;;;;;20.08;9.18;;;18.90;29.70;;;;;;5128057;27;20023;-69
2021/04/24 10:52:05;;;;;;;16.15;8.82;;;18.90;29.50;;;;;;5137001;27;20043;-69
2021/04/24 10:54:33;;;;;;;11.85;7.10;;;19.00;28.30;;;;;;5126813;27;20015;-69
2021/04/24 10:57:00;;;;;;;17.08;9.63;;;19.00;27.60;;;;;;5125207;28;20420;-69
2021/04/24 10:59:30;;;;;;;15.10;7.93;;;19.00;27.80;;;;;;5132209;27;20069;-69
2021/04/24 11:02:07;;;;;;;13.45;7.40;;;19.00;27.30;;;;;;5135544;27;20023;-69
2021/04/24 11:04:46;;;;;;;18.45;8.80;;;19.00;27.30;;;;;;5131744;27;20369;-69
2021/04/24 11:07:22;;;;;;;24.27;9.02;;;18.90;27.00;;;;;;5132635;27;21229;-69
2021/04/24 11:10:17;;;;;;;13.32;7.65;;;19.00;26.90;;;;;;5129915;27;20740;-69
2021/04/24 11:12:48;;;;;;;14.63;7.65;;;19.00;27.40;;;;;;5115192;28;20035;-69
2021/04/24 11:15:22;;;;;;;18.83;8.85;;;19.00;27.50;;;;;;5129702;27;20110;-69
2021/04/24 11:17:48;;;;;;;;;;;19.00;26.80;;;;;;5142102;27;20023;-68
2021/04/24 11:20:54;;;;;;;12.85;6.82;;;19.10;28.40;;;;;;5141548;27;19947;-69
2021/04/24 11:23:35;;;;;;;11.95;6.20;;;19.20;27.30;;;;;;5152426;27;20022;-68
2021/04/24 11:26:03;;;;;;;10.88;6.03;;;19.30;26.30;;;;;;5145970;27;20026;-68
2021/04/24 11:28:30;;;;;;;8.43;4.60;;;19.30;25.80;;;;;;5137815;27;20546;-68
2021/04/24 11:31:00;;;;;;;13.07;5.80;;;19.30;25.60;;;;;;5135703;27;20030;-69
2021/04/24 11:33:48;;;;;;;8.38;5.93;;;19.40;25.10;;;;;;5136341;27;20016;-66
2021/04/24 11:36:17;;;;;;;15.18;6.80;;;19.50;25.70;;;;;;5136441;27;20026;-68
2021/04/24 11:39:00;;;;;;;13.77;7.32;;;19.50;25.00;;;;;;5156918;27;20110;-68
2021/04/24 11:41:39;;;;;;;12.63;7.32;;;19.50;25.10;;;;;;5133303;27;20464;-68
2021/04/24 11:44:24;;;;;;;12.95;5.97;;;19.60;25.20;;;;;;5136267;27;20102;-68
2021/04/24 11:46:57;;;;;;;12.32;7.38;;;19.60;24.90;;;;;;5139976;27;20330;-68
2021/04/24 11:49:26;;;;;;;15.40;7.90;;;19.70;24.90;;;;;;5136123;27;20015;-68
2021/04/24 11:51:55;;;;;;;13.35;7.75;;;19.80;25.10;;;;;;5135837;27;20365;-68
2021/04/24 11:54:27;;;;;;;15.35;9.30;;;19.90;25.70;;;;;;5136156;27;20453;-68
2021/04/24 11:56:55;;;;;;;13.73;8.00;;;20.00;25.30;;;;;;5140353;27;20396;-68
2021/04/24 11:59:35;;;;;;;19.58;8.77;;;20.00;24.80;;;;;;5156272;27;20048;-68
2021/04/24 12:02:18;;;;;;;13.60;8.30;;;20.20;25.30;;;;;;5140566;27;20126;-68
2021/04/24 12:04:45;;;;;;;11.27;6.78;;;20.30;24.70;;;;;;5135817;27;20023;-68
2021/04/24 12:07:12;;;;;;;13.85;7.00;;;20.40;24.50;;;;;;5121524;27;20104;-68
2021/04/24 12:09:52;;;;;;;11.73;7.07;;;20.50;24.60;;;;;;5135702;27;20019;-68
2021/04/24 12:12:40;;;;;;;11.05;6.30;;;20.60;24.40;;;;;;5125459;27;20477;-68
2021/04/24 12:15:19;;;;;;;14.77;6.50;;;20.70;24.60;;;;;;5115037;28;20380;-68
2021/04/24 12:17:49;;;;;;;15.15;6.35;;;20.80;24.10;;;;;;5125134;27;20023;-68
2021/04/24 12:20:22;;;;;;;10.80;6.10;;;20.90;23.30;;;;;;5132970;27;20094;-68
2021/04/24 12:22:48;;;;;;;9.77;5.97;;;20.90;23.30;;;;;;5134094;27;20019;-68
2021/04/24 12:25:19;;;;;;;9.95;6.00;;;21.00;23.60;;;;;;5135209;27;20519;-68
2021/04/24 12:27:50;;;;;;;11.23;6.75;;;21.10;23.40;;;;;;5140783;27;20022;-68
2021/04/24 12:30:28;;;;;;;10.73;6.32;;;21.10;22.90;;;;;;5112992;28;20025;-68
2021/04/24 12:33:06;;;;;;;13.13;6.45;;;21.20;23.10;;;;;;5134602;27;20376;-68
2021/04/24 12:35:41;;;;;;;11.18;6.38;;;21.20;22.80;;;;;;5134840;27;20102;-68
2021/04/24 12:38:19;;;;;;;11.00;6.70;;;21.30;22.60;;;;;;5133669;27;20027;-68
2021/04/24 12:40:46;;;;;;;13.60;6.60;;;21.30;22.90;;;;;;5116080;27;20379;-68
2021/04/24 12:43:27;;;;;;;13.98;7.30;;;21.40;23.20;;;;;;5114053;28;20047;-68
2021/04/24 12:45:57;;;;;;;10.50;6.40;;;21.40;23.20;;;;;;5140708;27;20045;-68
2021/04/24 12:48:26;;;;;;;13.00;7.57;;;21.50;23.20;;;;;;5135381;27;20019;-68
2021/04/24 12:50:58;;;;;;;12.50;7.22;;;21.50;22.70;;;;;;5114074;27;20035;-69